首页
METAR-TAF:

METAR-TAF

机场 :

直布羅陀機場

直布罗陀, 直布罗陀

纬度: 36-09N, 经度: 005-21W, 海拔: 5米

当前天气观测

该预报发布于1小时和11分钟前的21:50 UTC
风速24节,风向西
温度 16°C
湿度 68%
气压 1015 hPa
能见度10公里或以上

METAR: LXGB 232150Z AUTO 27024KT 9999 // FEW031/// BKN050/// 16/10 Q1015

时间: 00:01 (23:01 UTC)

预报

该预报发布于6小时和32分钟前的16:29 UTC
预报有效从23日的 18点(UTC)到 24日的 23点(UTC)
风速20节,风向西
能见度10公里或以上
散云层高于3500英尺
短暂存在
从 23日的 18点(UTC)到 23日的 19点(UTC)
风速25节,风向西,有时为35节阵风

TAF: LXGB 231629Z 2318/2423 27020KT 9999 SCT035 TEMPO 2318/2319 28025G35KT 520002

超过4000个机场的气象观测和天气预报(METAR&TAF报告)。

可查询的气象台以黄色和红色小点在地图上表示。

将鼠标移到小点上方,可查看气象台名称。

然后点击查看天气观测和预报。

如需切换地图:点击带黑十字的绿色按钮放大地图;点击带横线的绿色按钮缩小地图;或者点击绿色箭头查看邻近地区的地图。


METAR-TAF: